KHVS/HVS METAR and TAF weather

Enter ICAO airport designator
Station Type Date Time Source
KHVS METAR 2019/06/25 23:35 UTC NOAA

KHVS 252335Z AUTO 00000KT 10SM CLR 28/16 A2998 RMK AO2


Station Type Date Time Source
KHVS Decoded METAR 2019/06/25 23:35 UTC NOAA

Station name not available
Jun 25, 2019 - 07:35 PM EDT / 2019.06.25 2335 UTC
Wind: Calm:0
Visibility: 10 mile(s):0
Sky conditions: clear
Temperature: 82 F (28 C)
Dew Point: 60 F (16 C)
Relative Humidity: 48%
Pressure (altimeter): 29.98 in. Hg (1015 hPa)
ob: KHVS 252335Z AUTO 00000KT 10SM CLR 28/16 A2998 RMK AO2
cycle: 23

Station Type Date Time Source
KHVS TAF UTC NOAA

Error!

Example: see airport list